Time;durP1;ratioP1;P1;durP2;ratioP2;P2;SDS_P1;SDS_P2;PMS_P1;PMS_P2;Temp;Humidity;BMP_temperature;BMP_pressure;BME280_temperature;BME280_humidity;BME280_pressure;Samples;Min_cycle;Max_cycle;Signal;HPM_P1;HPM_P2
2023/08/20 00:01:20;;;;;;;24.20;22.00;;;;;;;-128.00;-1.00;-1.00;105769;1251;1004242;-69
2023/08/20 00:03:48;;;;;;;25.20;23.10;;;;;;;-128.00;-1.00;-1.00;105809;1251;1046326;-69
2023/08/20 00:06:15;;;;;;;25.60;23.40;;;;;;;-128.00;-1.00;-1.00;105794;1250;1003255;-70
2023/08/20 00:08:41;;;;;;;29.60;26.80;;;;;;;-128.00;-1.00;-1.00;105807;1255;1004347;-69
2023/08/20 00:11:09;;;;;;;29.50;26.80;;;;;;;-128.00;-1.00;-1.00;105760;1251;1004201;-69
2023/08/20 00:13:36;;;;;;;28.50;25.90;;;;;;;-128.00;-1.00;-1.00;105772;1251;1003332;-69
2023/08/20 00:16:03;;;;;;;29.00;26.40;;;;;;;-128.00;-1.00;-1.00;105806;1251;1003893;-69
2023/08/20 00:18:30;;;;;;;26.60;24.10;;;;;;;-128.00;-1.00;-1.00;105784;1251;1003381;-69
2023/08/20 00:20:57;;;;;;;27.50;24.80;;;;;;;-128.00;-1.00;-1.00;105802;1250;1004178;-69
2023/08/20 00:23:23;;;;;;;24.60;22.40;;;;;;;-128.00;-1.00;-1.00;105791;1251;1004864;-69
2023/08/20 00:25:50;;;;;;;29.10;26.40;;;;;;;-128.00;-1.00;-1.00;105802;1251;1004790;-69
2023/08/20 00:28:19;;;;;;;29.50;26.70;;;;;;;-128.00;-1.00;-1.00;105827;1251;1005128;-69
2023/08/20 00:30:46;;;;;;;29.40;26.70;;;;;;;-128.00;-1.00;-1.00;105784;1251;1061503;-69
2023/08/20 00:33:13;;;;;;;28.50;26.00;;;;;;;-128.00;-1.00;-1.00;105791;1251;1004385;-69
2023/08/20 00:35:39;;;;;;;32.50;29.30;;;;;;;-128.00;-1.00;-1.00;105787;1251;1004219;-69
2023/08/20 00:38:06;;;;;;;34.60;31.10;;;;;;;-128.00;-1.00;-1.00;105841;1251;1004731;-69
2023/08/20 00:40:33;;;;;;;37.90;34.00;;;;;;;-128.00;-1.00;-1.00;105804;1251;1005130;-69
2023/08/20 00:42:59;;;;;;;35.90;32.10;;;;;;;-128.00;-1.00;-1.00;105705;1251;1004002;-68
2023/08/20 00:45:27;;;;;;;24.70;22.70;;;;;;;-128.00;-1.00;-1.00;105822;1251;1005018;-69
2023/08/20 00:47:53;;;;;;;30.10;27.20;;;;;;;-128.00;-1.00;-1.00;105790;1251;1003639;-69
2023/08/20 00:50:20;;;;;;;27.80;25.10;;;;;;;-128.00;-1.00;-1.00;105775;1251;1005315;-69
2023/08/20 00:52:47;;;;;;;27.40;25.00;;;;;;;-128.00;-1.00;-1.00;105809;1251;1004570;-68
2023/08/20 00:55:14;;;;;;;27.60;25.10;;;;;;;-128.00;-1.00;-1.00;105762;1251;1004536;-69
2023/08/20 00:57:41;;;;;;;28.40;25.70;;;;;;;-128.00;-1.00;-1.00;105823;1251;1004180;-68
2023/08/20 01:00:10;;;;;;;26.80;24.10;;;;;;;-128.00;-1.00;-1.00;105749;1251;1004194;-68
2023/08/20 01:02:38;;;;;;;25.60;23.40;;;;;;;-128.00;-1.00;-1.00;105838;1251;1046683;-68
2023/08/20 01:05:08;;;;;;;20.50;18.80;;;;;;;-128.00;-1.00;-1.00;105834;1251;1004998;-68
2023/08/20 01:07:48;;;;;;;22.70;20.80;;;;;;;-128.00;-1.00;-1.00;105822;1255;1060849;-68
2023/08/20 01:10:29;;;;;;;22.50;20.50;;;;;;;-128.00;-1.00;-1.00;105832;1251;1055680;-68
2023/08/20 01:12:57;;;;;;;23.80;21.80;;;;;;;-128.00;-1.00;-1.00;105763;1251;1060048;-68
2023/08/20 01:15:24;;;;;;;25.70;23.30;;;;;;;-128.00;-1.00;-1.00;105787;1251;1003852;-69
2023/08/20 01:17:51;;;;;;;30.00;27.30;;;;;;;-128.00;-1.00;-1.00;105779;1251;1004508;-68
2023/08/20 01:20:19;;;;;;;30.90;28.10;;;;;;;-128.00;-1.00;-1.00;105798;1251;1004611;-68
2023/08/20 01:23:10;;;;;;;29.00;26.50;;;;;;;-128.00;-1.00;-1.00;105865;1251;1004655;-69
2023/08/20 01:25:37;;;;;;;28.10;25.50;;;;;;;-128.00;-1.00;-1.00;105758;1251;1060591;-69
2023/08/20 01:28:15;;;;;;;29.20;26.60;;;;;;;-128.00;-1.00;-1.00;105794;1251;1005010;-69
2023/08/20 01:30:44;;;;;;;27.00;24.50;;;;;;;-128.00;-1.00;-1.00;105767;1251;1046489;-69
2023/08/20 01:33:12;;;;;;;25.40;23.10;;;;;;;-128.00;-1.00;-1.00;105766;1250;1062369;-69
2023/08/20 01:35:39;;;;;;;26.40;24.10;;;;;;;-128.00;-1.00;-1.00;105828;1251;1004010;-69
2023/08/20 01:38:05;;;;;;;32.10;29.30;;;;;;;-128.00;-1.00;-1.00;105783;1251;1003874;-69
2023/08/20 01:40:32;;;;;;;27.40;24.80;;;;;;;-128.00;-1.00;-1.00;105808;1251;1005838;-69
2023/08/20 01:42:58;;;;;;;27.00;24.50;;;;;;;-128.00;-1.00;-1.00;105812;1255;1004102;-69
2023/08/20 01:45:26;;;;;;;24.00;21.90;;;;;;;-128.00;-1.00;-1.00;105787;1251;1003969;-69
2023/08/20 01:47:52;;;;;;;25.50;23.00;;;;;;;-128.00;-1.00;-1.00;105795;1255;1004303;-69
2023/08/20 01:50:19;;;;;;;28.80;26.00;;;;;;;-128.00;-1.00;-1.00;105788;1251;1004869;-69
2023/08/20 01:52:45;;;;;;;28.70;26.00;;;;;;;-128.00;-1.00;-1.00;105770;1251;1004441;-69
2023/08/20 01:55:12;;;;;;;27.10;24.50;;;;;;;-128.00;-1.00;-1.00;105799;1251;1004591;-69
2023/08/20 01:57:39;;;;;;;26.00;23.50;;;;;;;-128.00;-1.00;-1.00;105776;1251;1004418;-69
2023/08/20 02:00:30;;;;;;;26.10;23.70;;;;;;;-128.00;-1.00;-1.00;105818;1251;1003786;-69
2023/08/20 02:02:57;;;;;;;23.30;21.20;;;;;;;-128.00;-1.00;-1.00;105621;1251;1058603;-69
2023/08/20 02:05:24;;;;;;;23.10;21.00;;;;;;;-128.00;-1.00;-1.00;105755;1255;1003342;-68
2023/08/20 02:07:50;;;;;;;23.00;21.00;;;;;;;-128.00;-1.00;-1.00;105836;1253;1004949;-68
2023/08/20 02:10:17;;;;;;;20.50;18.60;;;;;;;-128.00;-1.00;-1.00;105770;1251;1004080;-68
2023/08/20 02:12:43;;;;;;;22.30;20.20;;;;;;;-128.00;-1.00;-1.00;105745;1251;1004487;-68
2023/08/20 02:15:13;;;;;;;21.40;19.60;;;;;;;-128.00;-1.00;-1.00;105789;1251;1003925;-68
2023/08/20 02:17:39;;;;;;;29.20;26.50;;;;;;;-128.00;-1.00;-1.00;105807;1251;1046020;-69
2023/08/20 02:20:12;;;;;;;29.40;26.70;;;;;;;-128.00;-1.00;-1.00;105826;1251;1004186;-69
2023/08/20 02:22:38;;;;;;;31.00;28.00;;;;;;;-128.00;-1.00;-1.00;105667;1251;1061855;-69
2023/08/20 02:25:05;;;;;;;31.30;28.40;;;;;;;-128.00;-1.00;-1.00;105792;1251;1003917;-69
2023/08/20 02:27:32;;;;;;;29.20;26.30;;;;;;;-128.00;-1.00;-1.00;105807;1251;1003282;-68
2023/08/20 02:29:59;;;;;;;30.10;27.20;;;;;;;-128.00;-1.00;-1.00;105771;1251;1004145;-69
2023/08/20 02:32:26;;;;;;;27.90;25.30;;;;;;;-128.00;-1.00;-1.00;105819;1251;1004123;-69
2023/08/20 02:34:54;;;;;;;30.60;27.90;;;;;;;-128.00;-1.00;-1.00;105795;1251;1004567;-69
2023/08/20 02:37:20;;;;;;;29.30;26.70;;;;;;;-128.00;-1.00;-1.00;105617;1251;1003894;-69
2023/08/20 02:39:47;;;;;;;29.20;26.80;;;;;;;-128.00;-1.00;-1.00;105635;1251;1004050;-69
2023/08/20 02:42:13;;;;;;;28.10;25.50;;;;;;;-128.00;-1.00;-1.00;105805;1251;1004445;-70
2023/08/20 02:44:40;;;;;;;27.90;25.30;;;;;;;-128.00;-1.00;-1.00;105805;1251;1005023;-69
2023/08/20 02:47:07;;;;;;;24.10;21.90;;;;;;;-128.00;-1.00;-1.00;105817;1251;1004629;-69
2023/08/20 02:49:33;;;;;;;21.10;19.20;;;;;;;-128.00;-1.00;-1.00;105835;1254;1004161;-69
2023/08/20 02:52:00;;;;;;;21.80;19.90;;;;;;;-128.00;-1.00;-1.00;105791;1251;1004740;-69
2023/08/20 02:54:26;;;;;;;24.10;22.00;;;;;;;-128.00;-1.00;-1.00;105769;1251;1003532;-69
2023/08/20 02:56:53;;;;;;;25.80;23.40;;;;;;;-128.00;-1.00;-1.00;105826;1251;1003924;-69
2023/08/20 02:59:20;;;;;;;26.70;24.10;;;;;;;-128.00;-1.00;-1.00;105781;1250;1005449;-69
2023/08/20 03:01:46;;;;;;;23.80;21.70;;;;;;;-128.00;-1.00;-1.00;105819;1251;1003865;-69
2023/08/20 03:04:13;;;;;;;23.80;21.70;;;;;;;-128.00;-1.00;-1.00;105837;1251;1004497;-69
2023/08/20 03:06:40;;;;;;;26.40;24.00;;;;;;;-128.00;-1.00;-1.00;105825;1251;1004218;-69
2023/08/20 03:09:06;;;;;;;26.70;24.20;;;;;;;-128.00;-1.00;-1.00;105786;1251;1004173;-69
2023/08/20 03:11:32;;;;;;;24.40;22.30;;;;;;;-128.00;-1.00;-1.00;105798;1251;1004085;-69
2023/08/20 03:13:59;;;;;;;27.80;25.20;;;;;;;-128.00;-1.00;-1.00;105809;1251;1004868;-69
2023/08/20 03:16:26;;;;;;;26.90;24.30;;;;;;;-128.00;-1.00;-1.00;105790;1251;1004851;-69
2023/08/20 03:18:52;;;;;;;26.20;24.00;;;;;;;-128.00;-1.00;-1.00;105794;1251;1004157;-69
2023/08/20 03:21:19;;;;;;;26.30;24.00;;;;;;;-128.00;-1.00;-1.00;105798;1251;1003902;-69
2023/08/20 03:23:46;;;;;;;27.70;25.30;;;;;;;-128.00;-1.00;-1.00;105810;1251;1003781;-68
2023/08/20 03:26:12;;;;;;;27.00;24.60;;;;;;;-128.00;-1.00;-1.00;105707;1254;1003857;-68
2023/08/20 03:28:39;;;;;;;27.50;24.90;;;;;;;-128.00;-1.00;-1.00;105702;1253;1003562;-69
2023/08/20 03:31:06;;;;;;;29.00;26.30;;;;;;;-128.00;-1.00;-1.00;105666;1253;1003633;-68
2023/08/20 03:33:32;;;;;;;28.50;25.80;;;;;;;-128.00;-1.00;-1.00;105656;1252;1004097;-69
2023/08/20 03:35:59;;;;;;;27.70;25.20;;;;;;;-128.00;-1.00;-1.00;105689;1252;1004028;-73
2023/08/20 03:38:25;;;;;;;27.40;24.50;;;;;;;-128.00;-1.00;-1.00;105663;1254;1003451;-73
2023/08/20 03:40:54;;;;;;;27.00;24.50;;;;;;;-128.00;-1.00;-1.00;105711;1253;1003866;-73
2023/08/20 03:43:20;;;;;;;26.80;24.10;;;;;;;-128.00;-1.00;-1.00;105677;1254;1046032;-73
2023/08/20 03:45:51;;;;;;;27.50;24.80;;;;;;;-128.00;-1.00;-1.00;105685;1253;1004794;-73
2023/08/20 03:48:18;;;;;;;28.60;25.90;;;;;;;-128.00;-1.00;-1.00;105783;1254;1062204;-72
2023/08/20 03:50:44;;;;;;;29.10;26.30;;;;;;;-128.00;-1.00;-1.00;105669;1252;1004869;-72
2023/08/20 03:53:11;;;;;;;28.80;26.20;;;;;;;-128.00;-1.00;-1.00;105501;1253;1005244;-73
2023/08/20 03:55:37;;;;;;;25.90;23.40;;;;;;;-128.00;-1.00;-1.00;105702;1254;1004485;-73
2023/08/20 03:58:04;;;;;;;27.90;25.40;;;;;;;-128.00;-1.00;-1.00;105493;1253;1004906;-73
2023/08/20 04:00:30;;;;;;;25.10;22.70;;;;;;;-128.00;-1.00;-1.00;105699;1253;1004019;-73
2023/08/20 04:02:57;;;;;;;21.50;19.80;;;;;;;-128.00;-1.00;-1.00;105714;1253;1004078;-72
2023/08/20 04:05:24;;;;;;;23.00;20.80;;;;;;;-128.00;-1.00;-1.00;105665;1253;1004044;-72
2023/08/20 04:07:50;;;;;;;24.20;22.10;;;;;;;-128.00;-1.00;-1.00;105656;1253;1003905;-72
2023/08/20 04:10:17;;;;;;;21.50;19.80;;;;;;;-128.00;-1.00;-1.00;105637;1254;1004509;-73
2023/08/20 04:12:43;;;;;;;22.10;20.10;;;;;;;-128.00;-1.00;-1.00;105693;1254;1004257;-73
2023/08/20 04:15:10;;;;;;;20.60;18.60;;;;;;;-128.00;-1.00;-1.00;105526;1253;1004564;-73
2023/08/20 04:17:36;;;;;;;21.30;19.30;;;;;;;-128.00;-1.00;-1.00;105705;1252;1004041;-73
2023/08/20 04:20:06;;;;;;;23.60;21.50;;;;;;;-128.00;-1.00;-1.00;105457;1253;1004062;-72
2023/08/20 04:22:32;;;;;;;22.10;20.00;;;;;;;-128.00;-1.00;-1.00;105739;1253;1046788;-72
2023/08/20 04:24:59;;;;;;;20.40;18.70;;;;;;;-128.00;-1.00;-1.00;105747;1252;1004987;-73
2023/08/20 04:27:25;;;;;;;20.10;18.30;;;;;;;-128.00;-1.00;-1.00;105707;1254;1005188;-72
2023/08/20 04:29:52;;;;;;;22.70;20.60;;;;;;;-128.00;-1.00;-1.00;105741;1252;1004433;-72
2023/08/20 04:32:18;;;;;;;19.30;17.70;;;;;;;-128.00;-1.00;-1.00;105683;1252;1003807;-73
2023/08/20 04:34:46;;;;;;;17.90;16.30;;;;;;;-128.00;-1.00;-1.00;105769;1253;1005658;-72
2023/08/20 04:37:12;;;;;;;19.20;17.50;;;;;;;-128.00;-1.00;-1.00;105722;1253;1004975;-73
2023/08/20 04:39:39;;;;;;;18.90;17.30;;;;;;;-128.00;-1.00;-1.00;105781;1253;1003803;-72
2023/08/20 04:42:05;;;;;;;18.10;16.50;;;;;;;-128.00;-1.00;-1.00;105733;1252;1004223;-72
2023/08/20 04:44:32;;;;;;;19.10;17.50;;;;;;;-128.00;-1.00;-1.00;105712;1253;1004388;-73
2023/08/20 04:47:00;;;;;;;18.50;16.80;;;;;;;-128.00;-1.00;-1.00;105708;1254;1004811;-72
2023/08/20 04:49:28;;;;;;;17.50;16.00;;;;;;;-128.00;-1.00;-1.00;105695;1253;1004257;-73
2023/08/20 04:51:54;;;;;;;18.40;16.80;;;;;;;-128.00;-1.00;-1.00;105752;1253;1004637;-73
2023/08/20 04:54:21;;;;;;;18.00;16.60;;;;;;;-128.00;-1.00;-1.00;105577;1253;1004005;-73
2023/08/20 04:56:47;;;;;;;18.80;17.30;;;;;;;-128.00;-1.00;-1.00;105704;1254;1004896;-73
2023/08/20 04:59:14;;;;;;;18.90;17.50;;;;;;;-128.00;-1.00;-1.00;105617;1254;1003549;-73
2023/08/20 05:01:40;;;;;;;19.80;18.30;;;;;;;-128.00;-1.00;-1.00;105734;1252;1004093;-73
2023/08/20 05:04:07;;;;;;;19.00;17.40;;;;;;;-128.00;-1.00;-1.00;105735;1253;1003787;-72
2023/08/20 05:06:34;;;;;;;17.90;16.40;;;;;;;-128.00;-1.00;-1.00;105717;1252;1004956;-70
2023/08/20 05:09:00;;;;;;;18.10;16.60;;;;;;;-128.00;-1.00;-1.00;105740;1252;1004241;-70
2023/08/20 05:11:28;;;;;;;17.30;16.10;;;;;;;-128.00;-1.00;-1.00;105748;1253;1003879;-70
2023/08/20 05:13:55;;;;;;;17.70;16.30;;;;;;;-128.00;-1.00;-1.00;105710;1254;1004786;-71
2023/08/20 05:16:22;;;;;;;17.80;16.50;;;;;;;-128.00;-1.00;-1.00;105793;1252;1004112;-71
2023/08/20 05:18:48;;;;;;;18.10;16.60;;;;;;;-128.00;-1.00;-1.00;105570;1252;1003708;-71
2023/08/20 05:21:15;;;;;;;17.70;16.30;;;;;;;-128.00;-1.00;-1.00;105748;1253;1004938;-69
2023/08/20 05:23:41;;;;;;;16.40;15.10;;;;;;;-128.00;-1.00;-1.00;105741;1253;1004278;-70
2023/08/20 05:26:08;;;;;;;17.00;15.50;;;;;;;-128.00;-1.00;-1.00;105731;1253;1003652;-70
2023/08/20 05:28:34;;;;;;;16.80;15.40;;;;;;;-128.00;-1.00;-1.00;105717;1253;1004357;-70
2023/08/20 05:31:01;;;;;;;15.50;14.30;;;;;;;-128.00;-1.00;-1.00;105696;1252;1005038;-70
2023/08/20 05:33:28;;;;;;;16.70;15.20;;;;;;;-128.00;-1.00;-1.00;105728;1253;1004465;-70
2023/08/20 05:35:54;;;;;;;16.50;15.10;;;;;;;-128.00;-1.00;-1.00;105720;1252;1003639;-70
2023/08/20 05:38:21;;;;;;;16.00;14.60;;;;;;;-128.00;-1.00;-1.00;105729;1253;1003856;-70
2023/08/20 05:40:47;;;;;;;16.60;15.30;;;;;;;-128.00;-1.00;-1.00;105773;1253;1003939;-71
2023/08/20 05:43:14;;;;;;;15.90;14.80;;;;;;;-128.00;-1.00;-1.00;105769;1253;1005036;-70
2023/08/20 05:45:40;;;;;;;16.60;15.30;;;;;;;-128.00;-1.00;-1.00;105709;1253;1004317;-70
2023/08/20 05:48:07;;;;;;;16.30;15.20;;;;;;;-128.00;-1.00;-1.00;105713;1252;1004676;-70
2023/08/20 05:50:33;;;;;;;16.30;15.00;;;;;;;-128.00;-1.00;-1.00;105730;1252;1004186;-70
2023/08/20 05:53:01;;;;;;;15.60;14.50;;;;;;;-128.00;-1.00;-1.00;105741;1253;1003527;-70
2023/08/20 05:55:27;;;;;;;15.80;14.60;;;;;;;-128.00;-1.00;-1.00;105659;1253;1004863;-70
2023/08/20 05:57:54;;;;;;;16.20;14.90;;;;;;;-128.00;-1.00;-1.00;105752;1252;1004366;-70
2023/08/20 06:00:20;;;;;;;15.80;14.70;;;;;;;-128.00;-1.00;-1.00;105685;1252;1004615;-70
2023/08/20 06:02:47;;;;;;;14.00;12.90;;;;;;;-128.00;-1.00;-1.00;105692;1252;1004763;-70
2023/08/20 06:05:14;;;;;;;14.20;12.90;;;;;;;-128.00;-1.00;-1.00;105695;1252;1003535;-70
2023/08/20 06:07:40;;;;;;;13.90;12.80;;;;;;;-128.00;-1.00;-1.00;105770;1253;1004731;-70
2023/08/20 06:10:07;;;;;;;14.50;13.30;;;;;;;-128.00;-1.00;-1.00;105747;1252;1005531;-69
2023/08/20 06:12:34;;;;;;;15.00;13.90;;;;;;;-128.00;-1.00;-1.00;105497;1252;1005260;-70
2023/08/20 06:15:00;;;;;;;15.50;14.30;;;;;;;-128.00;-1.00;-1.00;105696;1253;1003198;-70
2023/08/20 06:17:27;;;;;;;15.10;13.80;;;;;;;-128.00;-1.00;-1.00;105762;1253;1004216;-70
2023/08/20 06:19:53;;;;;;;16.00;14.80;;;;;;;-128.00;-1.00;-1.00;105637;1253;1003328;-70
2023/08/20 06:22:20;;;;;;;16.50;15.20;;;;;;;-128.00;-1.00;-1.00;105698;1252;1003632;-70
2023/08/20 06:24:47;;;;;;;15.60;14.30;;;;;;;-128.00;-1.00;-1.00;105703;1252;1004683;-70
2023/08/20 06:27:13;;;;;;;15.70;14.60;;;;;;;-128.00;-1.00;-1.00;105700;1251;1004810;-71
2023/08/20 06:29:40;;;;;;;15.70;14.30;;;;;;;-128.00;-1.00;-1.00;105681;1252;1004449;-71
2023/08/20 06:32:06;;;;;;;15.10;13.70;;;;;;;-128.00;-1.00;-1.00;105724;1253;1004758;-71
2023/08/20 06:34:36;;;;;;;14.90;13.80;;;;;;;-128.00;-1.00;-1.00;105593;1252;1005063;-70
2023/08/20 06:37:03;;;;;;;15.20;14.10;;;;;;;-128.00;-1.00;-1.00;105728;1252;1046881;-68
2023/08/20 06:39:29;;;;;;;15.80;14.50;;;;;;;-128.00;-1.00;-1.00;105595;1252;1004818;-69
2023/08/20 06:41:56;;;;;;;16.20;14.90;;;;;;;-128.00;-1.00;-1.00;105711;1252;1005051;-70
2023/08/20 06:44:22;;;;;;;15.20;13.90;;;;;;;-128.00;-1.00;-1.00;105710;1253;1004007;-70
2023/08/20 06:46:49;;;;;;;15.10;13.90;;;;;;;-128.00;-1.00;-1.00;105712;1251;1004008;-73
2023/08/20 06:49:15;;;;;;;15.20;13.90;;;;;;;-128.00;-1.00;-1.00;105790;1251;1004997;-71
2023/08/20 06:51:42;;;;;;;15.80;14.50;;;;;;;-128.00;-1.00;-1.00;105813;1250;1004500;-71
2023/08/20 06:54:09;;;;;;;15.80;14.60;;;;;;;-128.00;-1.00;-1.00;105858;1251;1003627;-71
2023/08/20 06:56:36;;;;;;;15.90;14.60;;;;;;;-128.00;-1.00;-1.00;105760;1251;1004146;-71
2023/08/20 06:59:03;;;;;;;14.20;13.10;;;;;;;-128.00;-1.00;-1.00;105788;1251;1004139;-71
2023/08/20 07:01:29;;;;;;;14.50;13.40;;;;;;;-128.00;-1.00;-1.00;105810;1251;1004416;-70
2023/08/20 07:03:56;;;;;;;15.90;14.60;;;;;;;-128.00;-1.00;-1.00;105821;1251;1003390;-71
2023/08/20 07:06:23;;;;;;;16.20;14.90;;;;;;;-128.00;-1.00;-1.00;105753;1251;1004482;-72
2023/08/20 07:08:50;;;;;;;15.00;13.80;;;;;;;-128.00;-1.00;-1.00;105646;1251;1004937;-71
2023/08/20 07:11:16;;;;;;;14.70;13.70;;;;;;;-128.00;-1.00;-1.00;105809;1251;1004037;-71
2023/08/20 07:13:43;;;;;;;15.30;14.20;;;;;;;-128.00;-1.00;-1.00;105801;1251;1004092;-72
2023/08/20 07:16:10;;;;;;;15.40;14.30;;;;;;;-128.00;-1.00;-1.00;105810;1250;1003671;-72
2023/08/20 07:18:37;;;;;;;15.10;13.80;;;;;;;-128.00;-1.00;-1.00;105840;1251;1004617;-71
2023/08/20 07:21:03;;;;;;;15.70;14.40;;;;;;;-128.00;-1.00;-1.00;105804;1251;1003321;-71
2023/08/20 07:23:30;;;;;;;15.80;14.60;;;;;;;-128.00;-1.00;-1.00;105750;1251;1004894;-71
2023/08/20 07:26:08;;;;;;;16.50;15.20;;;;;;;-128.00;-1.00;-1.00;105811;1251;1003318;-72
2023/08/20 07:31:20;;;;;;;15.90;14.50;;;;;;;-128.00;-1.00;-1.00;105794;1251;1055492;-71
2023/08/20 07:33:48;;;;;;;14.90;13.60;;;;;;;-128.00;-1.00;-1.00;105765;1251;1003759;-71
2023/08/20 07:36:15;;;;;;;15.60;14.40;;;;;;;-128.00;-1.00;-1.00;105813;1251;1004450;-72
2023/08/20 07:38:43;;;;;;;16.20;14.80;;;;;;;-128.00;-1.00;-1.00;105634;1251;1005634;-71
2023/08/20 07:41:11;;;;;;;15.90;14.30;;;;;;;-128.00;-1.00;-1.00;105826;1251;1005741;-71
2023/08/20 07:43:38;;;;;;;14.90;13.70;;;;;;;-128.00;-1.00;-1.00;105794;1251;1004545;-73
2023/08/20 07:46:06;;;;;;;15.20;14.10;;;;;;;-128.00;-1.00;-1.00;105780;1251;1004373;-70
2023/08/20 07:48:33;;;;;;;15.40;14.10;;;;;;;-128.00;-1.00;-1.00;105797;1251;1004943;-72
2023/08/20 07:51:00;;;;;;;14.30;13.20;;;;;;;-128.00;-1.00;-1.00;105814;1251;1004824;-72
2023/08/20 07:53:27;;;;;;;15.30;14.00;;;;;;;-128.00;-1.00;-1.00;105837;1251;1003825;-72
2023/08/20 07:55:53;;;;;;;18.10;16.60;;;;;;;-128.00;-1.00;-1.00;105802;1251;1003772;-73
2023/08/20 07:58:20;;;;;;;15.70;14.50;;;;;;;-128.00;-1.00;-1.00;105780;1251;1005134;-72
2023/08/20 08:00:46;;;;;;;15.80;14.60;;;;;;;-128.00;-1.00;-1.00;105796;1251;1003384;-72
2023/08/20 08:03:14;;;;;;;15.70;14.50;;;;;;;-128.00;-1.00;-1.00;105827;1251;1004061;-72
2023/08/20 08:05:41;;;;;;;15.00;13.90;;;;;;;-128.00;-1.00;-1.00;105827;1251;1004369;-71
2023/08/20 08:08:08;;;;;;;15.60;14.40;;;;;;;-128.00;-1.00;-1.00;105780;1251;1003252;-70
2023/08/20 08:10:34;;;;;;;15.40;14.20;;;;;;;-128.00;-1.00;-1.00;105786;1251;1005340;-73
2023/08/20 08:13:01;;;;;;;14.40;13.20;;;;;;;-128.00;-1.00;-1.00;105831;1251;1004634;-71
2023/08/20 08:15:27;;;;;;;14.50;13.40;;;;;;;-128.00;-1.00;-1.00;105812;1251;1004229;-70
2023/08/20 08:17:54;;;;;;;15.50;14.20;;;;;;;-128.00;-1.00;-1.00;105825;1250;1005948;-72
2023/08/20 08:20:20;;;;;;;13.40;12.40;;;;;;;-128.00;-1.00;-1.00;105846;1251;1004283;-72
2023/08/20 08:22:47;;;;;;;14.40;13.20;;;;;;;-128.00;-1.00;-1.00;105797;1251;1003436;-71
2023/08/20 08:25:13;;;;;;;12.50;11.60;;;;;;;-128.00;-1.00;-1.00;105815;1251;1004222;-71
2023/08/20 08:27:40;;;;;;;14.00;12.80;;;;;;;-128.00;-1.00;-1.00;105827;1251;1004342;-71
2023/08/20 08:30:07;;;;;;;12.90;11.90;;;;;;;-128.00;-1.00;-1.00;105797;1251;1004291;-71
2023/08/20 08:32:33;;;;;;;12.80;11.90;;;;;;;-128.00;-1.00;-1.00;105784;1251;1004333;-72
2023/08/20 08:35:00;;;;;;;13.20;12.10;;;;;;;-128.00;-1.00;-1.00;105805;1250;1004722;-72
2023/08/20 08:37:26;;;;;;;13.90;12.90;;;;;;;-128.00;-1.00;-1.00;105824;1251;1003379;-72
2023/08/20 08:39:53;;;;;;;12.20;11.20;;;;;;;-128.00;-1.00;-1.00;105788;1251;1004915;-71
2023/08/20 08:42:22;;;;;;;13.10;12.20;;;;;;;-128.00;-1.00;-1.00;105793;1251;1004250;-72
2023/08/20 08:44:50;;;;;;;13.00;12.10;;;;;;;-128.00;-1.00;-1.00;105757;1251;1055908;-71
2023/08/20 08:47:18;;;;;;;13.40;12.20;;;;;;;-128.00;-1.00;-1.00;105847;1251;1003304;-72
2023/08/20 08:49:47;;;;;;;13.80;12.90;;;;;;;-128.00;-1.00;-1.00;105793;1251;1004003;-72
2023/08/20 08:52:14;;;;;;;13.10;12.10;;;;;;;-128.00;-1.00;-1.00;105793;1251;1047696;-72
2023/08/20 08:54:41;;;;;;;15.00;13.90;;;;;;;-128.00;-1.00;-1.00;105819;1251;1004309;-72
2023/08/20 08:57:08;;;;;;;15.20;13.80;;;;;;;-128.00;-1.00;-1.00;105841;1251;1005047;-71
2023/08/20 08:59:34;;;;;;;14.30;13.10;;;;;;;-128.00;-1.00;-1.00;105752;1251;1003793;-72
2023/08/20 09:02:01;;;;;;;13.90;12.80;;;;;;;-128.00;-1.00;-1.00;105775;1251;1004924;-72
2023/08/20 09:04:30;;;;;;;14.70;13.40;;;;;;;-128.00;-1.00;-1.00;105842;1251;1004558;-70
2023/08/20 09:06:57;;;;;;;14.20;12.90;;;;;;;-128.00;-1.00;-1.00;105787;1251;1061702;-72
2023/08/20 09:09:26;;;;;;;14.00;13.00;;;;;;;-128.00;-1.00;-1.00;105645;1251;1003737;-72
2023/08/20 09:11:53;;;;;;;;;;;;;;;-128.00;-1.00;-1.00;105820;1251;1059498;-71
2023/08/20 09:14:27;;;;;;;13.40;12.50;;;;;;;-128.00;-1.00;-1.00;105759;1251;1003729;-70
2023/08/20 09:16:55;;;;;;;13.90;12.80;;;;;;;-128.00;-1.00;-1.00;105799;1251;1046967;-72
2023/08/20 09:19:22;;;;;;;14.70;13.30;;;;;;;-128.00;-1.00;-1.00;105714;1250;1060901;-72
2023/08/20 09:21:49;;;;;;;14.20;13.00;;;;;;;-128.00;-1.00;-1.00;105810;1251;1004324;-72
2023/08/20 09:24:15;;;;;;;14.00;12.90;;;;;;;-128.00;-1.00;-1.00;105803;1251;1004859;-72
2023/08/20 09:26:45;;;;;;;13.50;12.40;;;;;;;-128.00;-1.00;-1.00;105735;1251;1005524;-72
2023/08/20 09:29:12;;;;;;;13.80;12.60;;;;;;;-128.00;-1.00;-1.00;105813;1251;1046606;-72
2023/08/20 09:31:39;;;;;;;15.00;13.90;;;;;;;-128.00;-1.00;-1.00;105784;1251;1004712;-72
2023/08/20 09:34:05;;;;;;;12.50;11.50;;;;;;;-128.00;-1.00;-1.00;105799;1251;1005537;-71
2023/08/20 09:36:35;;;;;;;13.50;12.40;;;;;;;-128.00;-1.00;-1.00;105781;1251;1004128;-72
2023/08/20 09:39:02;;;;;;;12.40;11.50;;;;;;;-128.00;-1.00;-1.00;105855;1251;1004615;-72
2023/08/20 09:41:29;;;;;;;12.50;11.40;;;;;;;-128.00;-1.00;-1.00;105814;1251;1005092;-72
2023/08/20 09:43:58;;;;;;;12.80;11.90;;;;;;;-128.00;-1.00;-1.00;105802;1250;1004081;-71
2023/08/20 09:46:27;;;;;;;11.90;10.70;;;;;;;-128.00;-1.00;-1.00;105796;1250;1054846;-72
2023/08/20 09:48:57;;;;;;;11.90;11.10;;;;;;;-128.00;-1.00;-1.00;105811;1251;1059472;-72
2023/08/20 09:51:26;;;;;;;12.40;11.40;;;;;;;-128.00;-1.00;-1.00;105822;1251;1044139;-72
2023/08/20 09:54:08;;;;;;;12.60;11.60;;;;;;;-128.00;-1.00;-1.00;105809;1251;1046291;-72
2023/08/20 09:56:39;;;;;;;12.60;11.60;;;;;;;-128.00;-1.00;-1.00;105776;1251;1061612;-72
2023/08/20 09:59:06;;;;;;;11.00;10.20;;;;;;;-128.00;-1.00;-1.00;105845;1250;1055296;-73
2023/08/20 10:01:33;;;;;;;11.20;10.40;;;;;;;-128.00;-1.00;-1.00;105764;1251;1005725;-72
2023/08/20 10:03:59;;;;;;;10.70;9.80;;;;;;;-128.00;-1.00;-1.00;105757;1251;1003529;-72
2023/08/20 10:06:27;;;;;;;10.50;9.60;;;;;;;-128.00;-1.00;-1.00;105788;1251;1004439;-72
2023/08/20 10:08:54;;;;;;;9.80;9.10;;;;;;;-128.00;-1.00;-1.00;105555;1251;1005234;-72
2023/08/20 10:11:20;;;;;;;10.70;9.70;;;;;;;-128.00;-1.00;-1.00;105778;1251;1003336;-72
2023/08/20 10:13:47;;;;;;;10.60;9.70;;;;;;;-128.00;-1.00;-1.00;105814;1251;1004010;-72
2023/08/20 10:16:34;;;;;;;9.40;8.80;;;;;;;-128.00;-1.00;-1.00;105778;1251;1044535;-72
2023/08/20 10:19:03;;;;;;;10.50;9.70;;;;;;;-128.00;-1.00;-1.00;105832;1251;1004705;-72
2023/08/20 10:21:29;;;;;;;10.30;9.40;;;;;;;-128.00;-1.00;-1.00;105868;1251;1061577;-72
2023/08/20 10:23:56;;;;;;;10.00;9.30;;;;;;;-128.00;-1.00;-1.00;105827;1251;1004026;-72
2023/08/20 10:26:24;;;;;;;9.30;8.70;;;;;;;-128.00;-1.00;-1.00;105814;1251;1005055;-72
2023/08/20 10:28:51;;;;;;;8.90;8.30;;;;;;;-128.00;-1.00;-1.00;105629;1251;1006136;-72
2023/08/20 10:31:17;;;;;;;9.50;8.80;;;;;;;-128.00;-1.00;-1.00;105857;1251;1004297;-72
2023/08/20 10:33:47;;;;;;;10.10;9.30;;;;;;;-128.00;-1.00;-1.00;105805;1251;1003843;-72
2023/08/20 10:36:24;;;;;;;10.00;9.20;;;;;;;-128.00;-1.00;-1.00;105771;1250;1056019;-72
2023/08/20 10:38:55;;;;;;;10.80;9.80;;;;;;;-128.00;-1.00;-1.00;105724;1251;1059921;-71
2023/08/20 10:41:28;;;;;;;9.80;9.10;;;;;;;-128.00;-1.00;-1.00;105812;1251;1045508;-71
2023/08/20 10:43:59;;;;;;;9.70;9.00;;;;;;;-128.00;-1.00;-1.00;105793;1251;1046033;-70
2023/08/20 10:46:31;;;;;;;10.00;9.30;;;;;;;-128.00;-1.00;-1.00;105849;1251;1061170;-72
2023/08/20 10:49:01;;;;;;;10.30;9.50;;;;;;;-128.00;-1.00;-1.00;105814;1250;1055725;-72
2023/08/20 10:51:36;;;;;;;10.60;9.80;;;;;;;-128.00;-1.00;-1.00;105798;1251;1058941;-72
2023/08/20 10:54:10;;;;;;;10.60;9.70;;;;;;;-128.00;-1.00;-1.00;105783;1251;1043829;-71
2023/08/20 10:56:59;;;;;;;9.90;9.30;;;;;;;-128.00;-1.00;-1.00;105637;1251;1046911;-72
2023/08/20 10:59:27;;;;;;;10.60;9.50;;;;;;;-128.00;-1.00;-1.00;105776;1251;1061048;-72
2023/08/20 11:01:55;;;;;;;11.70;10.60;;;;;;;-128.00;-1.00;-1.00;105804;1251;1005474;-71
2023/08/20 11:04:26;;;;;;;10.60;9.80;;;;;;;-128.00;-1.00;-1.00;105801;1251;1058530;-71
2023/08/20 11:06:56;;;;;;;10.50;9.80;;;;;;;-128.00;-1.00;-1.00;105583;1251;1045839;-71